createdAt,value
2023-05-24T00:01:13.422Z,17.23
2023-05-24T00:03:40.188Z,17.04
2023-05-24T00:06:07.300Z,16.98
2023-05-24T00:08:34.354Z,17.06
2023-05-24T00:11:01.039Z,17.15
2023-05-24T00:13:27.846Z,16.85
2023-05-24T00:15:54.528Z,16.89
2023-05-24T00:18:21.228Z,16.97
2023-05-24T00:20:48.149Z,17.06
2023-05-24T00:23:15.142Z,16.81
2023-05-24T00:25:41.771Z,17.20
2023-05-24T00:28:08.479Z,16.91
2023-05-24T00:30:35.118Z,16.79
2023-05-24T00:33:01.789Z,16.84
2023-05-24T00:35:28.486Z,16.97
2023-05-24T00:37:55.137Z,16.71
2023-05-24T00:40:21.788Z,16.70
2023-05-24T00:42:48.400Z,16.87
2023-05-24T00:45:15.081Z,16.98
2023-05-24T00:47:42.363Z,16.87
2023-05-24T00:50:10.390Z,16.81
2023-05-24T00:52:37.226Z,16.89
2023-05-24T00:55:04.268Z,16.99
2023-05-24T00:57:31.112Z,17.11
2023-05-24T00:59:57.863Z,17.09
2023-05-24T01:02:24.550Z,16.89
2023-05-24T01:04:51.417Z,16.76
2023-05-24T01:07:46.047Z,16.93
2023-05-24T01:10:12.688Z,17.05
2023-05-24T01:13:16.417Z,17.07
2023-05-24T01:15:52.330Z,17.10
2023-05-24T01:18:26.951Z,17.21
2023-05-24T01:21:11.872Z,17.15
2023-05-24T01:24:04.896Z,17.15
2023-05-24T01:27:00.971Z,17.05
2023-05-24T01:29:29.564Z,17.02
2023-05-24T01:31:57.082Z,16.87
2023-05-24T01:34:25.891Z,16.92
2023-05-24T01:36:52.908Z,16.57
2023-05-24T01:39:21.053Z,16.66
2023-05-24T01:42:10.664Z,16.88
2023-05-24T01:44:46.492Z,16.96
2023-05-24T01:47:45.430Z,17.08
2023-05-24T01:50:36.894Z,17.14
2023-05-24T01:53:09.753Z,16.94
2023-05-24T01:55:38.052Z,17.05
2023-05-24T01:58:06.667Z,17.13
2023-05-24T02:00:34.914Z,16.83
2023-05-24T02:03:02.668Z,16.87
2023-05-24T02:05:29.377Z,16.83
2023-05-24T02:07:56.263Z,16.92
2023-05-24T02:10:23.000Z,16.80
2023-05-24T02:12:49.712Z,16.31
2023-05-24T02:15:16.406Z,16.46
2023-05-24T02:17:43.116Z,16.52
2023-05-24T02:20:10.377Z,16.54
2023-05-24T02:22:37.086Z,16.48
2023-05-24T02:25:03.995Z,16.41
2023-05-24T02:27:30.959Z,16.34
2023-05-24T02:29:57.646Z,16.33
2023-05-24T02:32:24.303Z,16.33
2023-05-24T02:34:50.938Z,16.40
2023-05-24T02:37:17.589Z,16.41
2023-05-24T02:39:44.370Z,16.40
2023-05-24T02:42:11.027Z,16.49
2023-05-24T02:44:37.709Z,16.51
2023-05-24T02:47:04.653Z,16.50
2023-05-24T02:49:31.303Z,16.56
2023-05-24T02:51:57.981Z,16.41
2023-05-24T02:54:24.731Z,16.35
2023-05-24T02:56:51.347Z,16.23
2023-05-24T02:59:18.090Z,16.31
2023-05-24T03:01:44.948Z,16.26
2023-05-24T03:04:11.704Z,16.22
2023-05-24T03:06:38.443Z,16.18
2023-05-24T03:09:05.108Z,16.14
2023-05-24T03:11:31.900Z,15.96
2023-05-24T03:13:58.551Z,15.89
2023-05-24T03:16:25.281Z,15.74
2023-05-24T03:18:51.971Z,15.56
2023-05-24T03:21:18.628Z,15.59
2023-05-24T03:23:45.304Z,15.62
2023-05-24T03:26:12.061Z,15.45
2023-05-24T03:28:39.315Z,15.56
2023-05-24T03:31:06.365Z,15.55
2023-05-24T03:33:33.327Z,15.65
2023-05-24T03:36:00.014Z,15.58
2023-05-24T03:38:26.768Z,15.63
2023-05-24T03:40:53.408Z,15.49
2023-05-24T03:43:20.048Z,15.62
2023-05-24T03:45:47.147Z,15.80
2023-05-24T03:48:14.322Z,15.62
2023-05-24T03:50:41.081Z,15.36
2023-05-24T03:53:07.917Z,14.90
2023-05-24T03:55:34.573Z,15.10
2023-05-24T03:58:01.491Z,14.95
2023-05-24T04:00:28.208Z,14.85
2023-05-24T04:02:54.975Z,14.83
2023-05-24T04:05:22.242Z,15.07
2023-05-24T04:07:48.883Z,15.04
2023-05-24T04:10:15.656Z,15.08
2023-05-24T04:12:42.310Z,15.05
2023-05-24T04:15:09.441Z,15.05
2023-05-24T04:17:36.194Z,15.00
2023-05-24T04:20:02.970Z,15.17
2023-05-24T04:22:30.232Z,15.41
2023-05-24T04:24:56.939Z,15.40
2023-05-24T04:27:23.697Z,15.56
2023-05-24T04:29:50.374Z,15.43
2023-05-24T04:32:17.085Z,15.40
2023-05-24T04:34:44.730Z,15.41
2023-05-24T04:37:11.446Z,15.50
2023-05-24T04:39:38.127Z,15.55
2023-05-24T04:42:05.101Z,15.56
2023-05-24T04:44:31.748Z,15.60
2023-05-24T04:46:58.445Z,15.73
2023-05-24T04:49:25.112Z,15.85
2023-05-24T04:51:52.916Z,15.70
2023-05-24T04:54:21.338Z,15.99
2023-05-24T04:56:48.113Z,15.73
2023-05-24T04:59:15.173Z,15.59
2023-05-24T05:01:41.957Z,15.75
2023-05-24T05:04:08.834Z,15.58
2023-05-24T05:06:35.618Z,15.65
2023-05-24T05:09:02.291Z,15.87
2023-05-24T05:11:28.983Z,15.70
2023-05-24T05:13:55.645Z,15.76
2023-05-24T05:16:22.321Z,16.00
2023-05-24T05:18:49.134Z,16.06
2023-05-24T05:21:15.781Z,16.15
2023-05-24T05:23:42.465Z,15.90
2023-05-24T05:26:09.286Z,16.10
2023-05-24T05:28:35.940Z,15.92
2023-05-24T05:31:02.985Z,16.10
2023-05-24T05:33:31.819Z,16.14
2023-05-24T05:35:58.636Z,16.10
2023-05-24T05:38:25.542Z,16.23
2023-05-24T05:40:52.529Z,16.00
2023-05-24T05:43:19.290Z,16.15
2023-05-24T05:45:46.054Z,16.31
2023-05-24T05:48:12.700Z,16.33
2023-05-24T05:50:41.622Z,16.23
2023-05-24T05:53:08.561Z,16.32
2023-05-24T05:55:35.275Z,16.11
2023-05-24T05:58:01.991Z,16.01
2023-05-24T06:00:28.646Z,16.25
2023-05-24T06:02:55.485Z,16.29
2023-05-24T06:05:22.157Z,16.30
2023-05-24T06:07:48.860Z,16.53
2023-05-24T06:10:15.557Z,16.57
2023-05-24T06:12:42.172Z,16.60
2023-05-24T06:15:09.754Z,16.63
2023-05-24T06:17:37.134Z,16.53
2023-05-24T06:20:04.381Z,16.50
2023-05-24T06:22:31.125Z,16.47
2023-05-24T06:24:57.785Z,16.66
2023-05-24T06:27:24.576Z,16.56
2023-05-24T06:29:51.227Z,16.63
2023-05-24T06:32:17.892Z,16.92
2023-05-24T06:34:44.921Z,16.93
2023-05-24T06:37:11.570Z,17.01
2023-05-24T06:39:38.229Z,17.34
2023-05-24T06:42:05.244Z,17.14
2023-05-24T06:44:32.192Z,17.16
2023-05-24T06:46:59.017Z,17.25
2023-05-24T06:49:25.822Z,17.26
2023-05-24T06:51:52.491Z,17.40
2023-05-24T06:54:19.266Z,17.20
2023-05-24T06:56:46.396Z,17.52
2023-05-24T06:59:13.257Z,17.58
2023-05-24T07:01:40.514Z,17.74
2023-05-24T07:04:07.174Z,17.86
2023-05-24T07:06:33.876Z,18.21
2023-05-24T07:09:00.545Z,18.24
2023-05-24T07:11:28.124Z,18.47
2023-05-24T07:13:54.833Z,18.55
2023-05-24T07:16:21.518Z,18.49
2023-05-24T07:18:48.199Z,18.82
2023-05-24T07:21:15.167Z,18.95
2023-05-24T07:23:41.898Z,18.55
2023-05-24T07:26:08.536Z,18.47
2023-05-24T07:28:35.313Z,18.73
2023-05-24T07:31:01.952Z,18.70
2023-05-24T07:33:28.644Z,18.67
2023-05-24T07:35:55.248Z,18.72
2023-05-24T07:38:22.015Z,19.11
2023-05-24T07:40:48.661Z,19.03
2023-05-24T07:43:15.658Z,18.85
2023-05-24T07:45:42.615Z,18.84
2023-05-24T07:48:09.409Z,18.78
2023-05-24T07:50:36.128Z,18.85
2023-05-24T07:53:02.773Z,19.17
2023-05-24T07:55:29.456Z,19.12
2023-05-24T07:57:56.161Z,19.50
2023-05-24T08:00:23.144Z,19.79
2023-05-24T08:02:50.007Z,19.22
2023-05-24T08:05:16.883Z,19.23
2023-05-24T08:07:43.684Z,19.22
2023-05-24T08:10:11.109Z,19.32
2023-05-24T08:12:37.849Z,19.08
2023-05-24T08:15:05.541Z,19.40
2023-05-24T08:17:32.276Z,19.42
2023-05-24T08:19:58.963Z,19.24
2023-05-24T08:22:25.653Z,19.48
2023-05-24T08:24:52.292Z,19.56
2023-05-24T08:27:18.953Z,19.54
2023-05-24T08:29:45.692Z,19.55
2023-05-24T08:32:12.627Z,19.91
2023-05-24T08:34:39.415Z,19.89
2023-05-24T08:37:06.033Z,19.71
2023-05-24T08:39:32.704Z,19.35
2023-05-24T08:42:08.513Z,19.18
2023-05-24T08:44:48.882Z,19.12
2023-05-24T08:47:15.660Z,19.32
2023-05-24T08:49:42.623Z,19.56
2023-05-24T08:52:10.059Z,19.57
2023-05-24T08:54:37.137Z,19.59
2023-05-24T08:57:04.167Z,19.57
2023-05-24T08:59:30.919Z,19.69
2023-05-24T09:01:57.817Z,19.71
2023-05-24T09:04:27.664Z,19.45
2023-05-24T09:06:55.333Z,19.86
2023-05-24T09:09:22.494Z,20.16
2023-05-24T09:11:52.145Z,20.24
2023-05-24T09:14:19.082Z,20.50
2023-05-24T09:16:46.414Z,20.93
2023-05-24T09:19:13.304Z,20.90
2023-05-24T09:21:40.440Z,20.68
2023-05-24T09:24:11.434Z,20.66
2023-05-24T09:26:38.040Z,20.72
2023-05-24T09:29:08.937Z,20.77
2023-05-24T09:31:38.924Z,20.74
2023-05-24T09:34:10.521Z,20.77
2023-05-24T09:36:40.788Z,20.94
2023-05-24T09:39:11.636Z,20.88
2023-05-24T09:41:38.932Z,21.04
2023-05-24T09:44:06.037Z,21.14
2023-05-24T09:46:36.580Z,21.05
2023-05-24T09:49:03.298Z,21.08
2023-05-24T09:51:30.458Z,21.38
2023-05-24T09:53:58.753Z,21.22
2023-05-24T09:56:25.818Z,21.24
2023-05-24T09:58:52.824Z,20.78
2023-05-24T10:01:23.292Z,21.21
2023-05-24T10:03:55.432Z,21.51
2023-05-24T10:06:22.289Z,21.54
2023-05-24T10:08:48.944Z,21.54
2023-05-24T10:11:15.663Z,21.88
2023-05-24T10:13:43.382Z,21.45
2023-05-24T10:16:10.659Z,21.73
2023-05-24T10:18:38.207Z,21.71
2023-05-24T10:21:09.039Z,21.70
2023-05-24T10:23:38.643Z,21.99
2023-05-24T10:26:07.944Z,21.90
2023-05-24T10:28:38.649Z,21.87
2023-05-24T10:31:25.242Z,21.59
2023-05-24T10:33:55.616Z,21.68
2023-05-24T10:36:26.656Z,22.02
2023-05-24T10:38:54.286Z,21.64
2023-05-24T10:41:20.971Z,21.58
2023-05-24T10:44:00.678Z,22.00
2023-05-24T10:46:34.557Z,22.19
2023-05-24T10:49:01.717Z,21.72
2023-05-24T10:51:36.389Z,22.14
2023-05-24T10:54:25.157Z,22.40
2023-05-24T10:56:53.038Z,22.10
2023-05-24T10:59:24.237Z,22.17
2023-05-24T11:02:10.589Z,22.66
2023-05-24T11:04:43.058Z,22.68
2023-05-24T11:07:10.825Z,22.72
2023-05-24T11:09:41.403Z,22.61
2023-05-24T11:12:09.070Z,22.57
2023-05-24T11:14:39.521Z,22.60
2023-05-24T11:17:09.424Z,22.53
2023-05-24T11:19:38.556Z,22.56
2023-05-24T11:22:08.478Z,22.67
2023-05-24T11:24:35.242Z,22.78
2023-05-24T11:27:01.981Z,22.52
2023-05-24T11:29:29.834Z,22.62
2023-05-24T11:31:58.889Z,22.55
2023-05-24T11:34:25.601Z,22.77
2023-05-24T11:36:52.369Z,22.99
2023-05-24T11:39:19.290Z,23.31
2023-05-24T11:41:47.638Z,23.26
2023-05-24T11:44:17.899Z,22.71
2023-05-24T11:46:44.821Z,22.69
2023-05-24T11:49:17.735Z,23.32
2023-05-24T11:51:44.576Z,23.74
2023-05-24T11:54:11.425Z,23.70
2023-05-24T11:56:38.098Z,23.31
2023-05-24T11:59:22.507Z,22.95
2023-05-24T12:01:49.347Z,23.17
2023-05-24T12:04:16.069Z,22.69
2023-05-24T12:06:44.604Z,22.38
2023-05-24T12:09:12.654Z,22.59
2023-05-24T12:11:47.076Z,22.76
2023-05-24T12:14:14.862Z,22.69
2023-05-24T12:16:46.230Z,22.80
2023-05-24T12:19:31.572Z,22.91
2023-05-24T12:22:00.442Z,22.56
2023-05-24T12:24:28.128Z,23.08
2023-05-24T12:27:00.581Z,23.50
2023-05-24T12:29:27.502Z,23.75
2023-05-24T12:31:54.244Z,23.74
2023-05-24T12:34:21.393Z,23.64
2023-05-24T12:36:48.155Z,23.35
2023-05-24T12:39:41.049Z,23.55
2023-05-24T12:42:07.927Z,23.55
2023-05-24T12:44:36.015Z,23.49
2023-05-24T12:47:04.995Z,23.42
2023-05-24T12:49:32.270Z,23.67
2023-05-24T12:51:59.925Z,23.24
2023-05-24T12:54:28.589Z,23.23
2023-05-24T12:56:57.352Z,23.58
2023-05-24T12:59:25.471Z,23.94
2023-05-24T13:01:52.282Z,23.56
2023-05-24T13:04:20.811Z,23.41
2023-05-24T13:06:47.915Z,23.18
2023-05-24T13:09:15.072Z,22.95
2023-05-24T13:11:41.790Z,23.24
2023-05-24T13:14:08.407Z,23.12
2023-05-24T13:16:35.067Z,23.33
2023-05-24T13:19:01.940Z,23.70
2023-05-24T13:21:28.630Z,23.83
2023-05-24T13:23:55.303Z,24.02
2023-05-24T13:26:22.137Z,24.04
2023-05-24T13:29:11.811Z,23.75
2023-05-24T13:31:36.195Z,24.12
2023-05-24T13:34:02.962Z,23.90
2023-05-24T13:36:29.768Z,23.56
2023-05-24T13:39:12.811Z,23.90
2023-05-24T13:41:43.708Z,23.82
2023-05-24T13:44:11.981Z,24.11
2023-05-24T13:46:39.341Z,24.20
2023-05-24T13:49:07.100Z,23.99
2023-05-24T13:51:33.927Z,24.30
2023-05-24T13:54:00.748Z,24.00
2023-05-24T13:56:27.727Z,24.10
2023-05-24T13:58:54.370Z,24.09
2023-05-24T14:01:21.124Z,23.86
2023-05-24T14:03:47.782Z,23.76
2023-05-24T14:06:14.587Z,24.08
2023-05-24T14:08:41.453Z,23.99
2023-05-24T14:11:08.518Z,23.92
2023-05-24T14:16:06.480Z,23.99
2023-05-24T14:18:33.800Z,23.58
2023-05-24T14:21:00.526Z,23.65
2023-05-24T14:23:27.226Z,23.88
2023-05-24T14:25:53.890Z,24.06
2023-05-24T14:28:20.600Z,23.39
2023-05-24T14:30:47.303Z,22.68
2023-05-24T14:33:14.062Z,22.43
2023-05-24T14:35:41.403Z,22.76
2023-05-24T14:38:10.138Z,23.02
2023-05-24T14:40:37.713Z,22.61
2023-05-24T14:43:05.805Z,22.67
2023-05-24T14:45:33.186Z,22.97
2023-05-24T14:48:00.048Z,22.29
2023-05-24T14:50:26.993Z,22.47
2023-05-24T14:52:55.312Z,22.94
2023-05-24T14:55:22.540Z,23.01
2023-05-24T14:57:49.408Z,23.00
2023-05-24T15:00:17.544Z,22.38
2023-05-24T15:02:45.935Z,22.57
2023-05-24T15:05:12.596Z,22.86
2023-05-24T15:07:39.232Z,22.96
2023-05-24T15:10:08.125Z,22.68
2023-05-24T15:12:34.763Z,22.95
2023-05-24T15:15:01.442Z,23.03
2023-05-24T15:17:28.429Z,23.37
2023-05-24T15:19:55.417Z,23.18
2023-05-24T15:22:22.054Z,23.05
2023-05-24T15:24:51.095Z,23.06
2023-05-24T15:27:17.734Z,23.03
2023-05-24T15:29:44.701Z,23.11
2023-05-24T15:32:11.327Z,23.10
2023-05-24T15:34:37.995Z,22.68
2023-05-24T15:37:04.868Z,22.85
2023-05-24T15:39:31.520Z,22.99
2023-05-24T15:41:58.166Z,22.72
2023-05-24T15:44:24.908Z,22.75
2023-05-24T15:46:51.625Z,22.81
2023-05-24T15:49:18.398Z,22.17
2023-05-24T15:54:14.947Z,22.44
2023-05-24T15:56:41.607Z,22.10
2023-05-24T15:59:08.269Z,22.49
2023-05-24T16:01:35.335Z,22.62
2023-05-24T16:04:02.135Z,22.45
2023-05-24T16:06:28.810Z,22.36
2023-05-24T16:08:55.470Z,22.74
2023-05-24T16:11:22.191Z,22.66
2023-05-24T16:13:49.091Z,22.32
2023-05-24T16:16:15.943Z,22.39
2023-05-24T16:18:42.731Z,22.23
2023-05-24T16:21:09.369Z,22.55
2023-05-24T16:23:36.017Z,22.57
2023-05-24T16:26:02.688Z,22.61
2023-05-24T16:28:29.381Z,22.34
2023-05-24T16:30:56.245Z,22.16
2023-05-24T16:33:23.794Z,21.93
2023-05-24T16:35:53.452Z,22.04
2023-05-24T16:38:20.109Z,22.29
2023-05-24T16:40:46.770Z,22.19
2023-05-24T16:43:13.630Z,22.07
2023-05-24T16:45:40.318Z,22.00
2023-05-24T16:48:07.062Z,21.88
2023-05-24T16:50:33.850Z,21.84
2023-05-24T16:53:00.517Z,21.50
2023-05-24T16:55:28.268Z,21.58
2023-05-24T16:57:54.903Z,21.56
2023-05-24T17:00:22.042Z,21.78
2023-05-24T17:02:49.019Z,21.22
2023-05-24T17:05:15.785Z,21.37
2023-05-24T17:07:42.513Z,21.40
2023-05-24T17:10:09.326Z,21.26
2023-05-24T17:12:35.960Z,21.16
2023-05-24T17:15:02.773Z,20.83
2023-05-24T17:17:29.523Z,20.74
2023-05-24T17:19:56.243Z,20.69
2023-05-24T17:22:22.864Z,20.70
2023-05-24T17:24:49.495Z,20.69
2023-05-24T17:27:19.837Z,20.66
2023-05-24T17:29:48.613Z,20.58
2023-05-24T17:32:15.256Z,20.23
2023-05-24T17:34:41.873Z,20.27
2023-05-24T17:37:08.488Z,20.36
2023-05-24T17:39:35.218Z,20.30
2023-05-24T17:42:01.862Z,20.28
2023-05-24T17:44:28.514Z,20.30
2023-05-24T17:46:55.150Z,20.43
2023-05-24T17:49:21.805Z,20.59
2023-05-24T17:51:48.454Z,20.49
2023-05-24T17:54:15.151Z,20.21
2023-05-24T17:56:41.859Z,19.99
2023-05-24T17:59:08.524Z,20.13
2023-05-24T18:01:35.242Z,20.17
2023-05-24T18:04:01.959Z,19.98
2023-05-24T18:06:28.730Z,19.81
2023-05-24T18:08:55.519Z,19.70
2023-05-24T18:11:22.192Z,19.83
2023-05-24T18:13:48.844Z,20.05
2023-05-24T18:16:15.608Z,20.00
2023-05-24T18:18:42.235Z,19.88
2023-05-24T18:21:09.335Z,19.80
2023-05-24T18:23:36.605Z,19.91
2023-05-24T18:26:06.829Z,20.03
2023-05-24T18:28:34.236Z,19.96
2023-05-24T18:31:00.857Z,19.87
2023-05-24T18:33:27.580Z,19.54
2023-05-24T18:35:54.304Z,19.30
2023-05-24T18:38:21.133Z,19.49
2023-05-24T18:40:47.841Z,19.60
2023-05-24T18:43:14.508Z,19.48
2023-05-24T18:45:41.381Z,19.35
2023-05-24T18:48:08.263Z,19.50
2023-05-24T18:50:35.076Z,19.64
2023-05-24T18:53:01.724Z,19.24
2023-05-24T18:55:28.869Z,19.24
2023-05-24T18:57:55.588Z,19.44
2023-05-24T19:00:22.470Z,19.13
2023-05-24T19:02:49.766Z,19.07
2023-05-24T19:05:16.635Z,18.82
2023-05-24T19:07:43.417Z,19.04
2023-05-24T19:10:10.202Z,19.12
2023-05-24T19:12:36.919Z,18.92
2023-05-24T19:15:03.824Z,18.96
2023-05-24T19:17:30.501Z,19.06
2023-05-24T19:19:57.289Z,19.11
2023-05-24T19:22:24.018Z,18.96
2023-05-24T19:24:50.709Z,18.80
2023-05-24T19:27:17.474Z,18.75
2023-05-24T19:29:44.207Z,18.68
2023-05-24T19:32:11.033Z,18.55
2023-05-24T19:34:37.727Z,18.28
2023-05-24T19:37:04.698Z,18.62
2023-05-24T19:39:31.345Z,18.78
2023-05-24T19:41:57.951Z,18.76
2023-05-24T19:44:24.730Z,18.47
2023-05-24T19:46:51.556Z,18.57
2023-05-24T19:49:18.298Z,18.35
2023-05-24T19:51:45.195Z,18.33
2023-05-24T19:54:12.003Z,18.61
2023-05-24T19:56:38.637Z,18.78
2023-05-24T19:59:05.372Z,18.82
2023-05-24T20:01:32.076Z,18.86
2023-05-24T20:03:58.981Z,18.56
2023-05-24T20:06:28.500Z,18.55
2023-05-24T20:08:55.229Z,18.73
2023-05-24T20:11:21.864Z,18.36
2023-05-24T20:13:49.040Z,18.43
2023-05-24T20:16:15.739Z,18.27
2023-05-24T20:18:42.558Z,18.26
2023-05-24T20:21:09.256Z,18.47
2023-05-24T20:23:36.013Z,18.33
2023-05-24T20:26:02.807Z,17.90
2023-05-24T20:28:31.587Z,17.88
2023-05-24T20:30:59.107Z,18.09
2023-05-24T20:33:25.969Z,18.02
2023-05-24T20:35:52.703Z,17.60
2023-05-24T20:38:19.392Z,17.99
2023-05-24T20:40:46.128Z,17.72
2023-05-24T20:43:12.860Z,17.65
2023-05-24T20:45:39.595Z,17.78
2023-05-24T20:48:06.555Z,17.44
2023-05-24T20:50:33.393Z,17.56
2023-05-24T20:53:00.027Z,17.81
2023-05-24T20:55:27.213Z,17.62
2023-05-24T20:57:54.090Z,17.74
2023-05-24T21:00:20.745Z,17.90
2023-05-24T21:02:47.526Z,17.95
2023-05-24T21:05:14.415Z,18.16
2023-05-24T21:07:41.065Z,18.07
2023-05-24T21:10:08.269Z,18.18
2023-05-24T21:12:35.014Z,18.16
2023-05-24T21:15:01.662Z,18.12
2023-05-24T21:17:28.380Z,17.94
2023-05-24T21:19:55.131Z,18.17
2023-05-24T21:22:21.913Z,17.92
2023-05-24T21:24:48.549Z,17.72
2023-05-24T21:27:15.295Z,17.99
2023-05-24T21:29:41.996Z,17.98
2023-05-24T21:32:08.811Z,18.02
2023-05-24T21:34:35.566Z,18.23
2023-05-24T21:37:02.676Z,18.40
2023-05-24T21:39:29.567Z,18.39
2023-05-24T21:41:56.458Z,18.25
2023-05-24T21:44:23.126Z,18.02
2023-05-24T21:46:49.828Z,17.92
2023-05-24T21:49:16.517Z,17.86
2023-05-24T21:51:43.172Z,17.94
2023-05-24T21:54:09.934Z,18.09
2023-05-24T21:56:37.299Z,18.15
2023-05-24T21:59:03.923Z,18.15
2023-05-24T22:01:30.589Z,18.07
2023-05-24T22:03:57.711Z,17.94
2023-05-24T22:06:24.404Z,17.98
2023-05-24T22:08:51.047Z,18.03
2023-05-24T22:11:17.821Z,18.08
2023-05-24T22:13:44.458Z,18.05
2023-05-24T22:16:11.173Z,18.13
2023-05-24T22:18:37.822Z,18.15
2023-05-24T22:21:04.653Z,18.03
2023-05-24T22:23:31.440Z,17.99
2023-05-24T22:25:58.167Z,18.09
2023-05-24T22:28:24.832Z,18.11
2023-05-24T22:30:51.609Z,18.08
2023-05-24T22:33:18.225Z,17.46
2023-05-24T22:35:45.037Z,17.19
2023-05-24T22:38:12.311Z,17.31
2023-05-24T22:40:39.007Z,17.45
2023-05-24T22:43:05.655Z,17.31
2023-05-24T22:45:32.335Z,17.15
2023-05-24T22:47:59.109Z,17.27
2023-05-24T22:50:26.109Z,17.27
2023-05-24T22:52:52.802Z,17.38
2023-05-24T22:55:19.509Z,17.23
2023-05-24T22:57:46.147Z,17.34
2023-05-24T23:00:13.255Z,17.32
2023-05-24T23:02:39.967Z,17.47
2023-05-24T23:05:07.045Z,17.24
2023-05-24T23:07:33.755Z,17.30
2023-05-24T23:10:00.441Z,17.26
2023-05-24T23:12:27.149Z,17.08
2023-05-24T23:14:53.840Z,16.82
2023-05-24T23:17:20.632Z,16.85
2023-05-24T23:19:47.329Z,16.95
2023-05-24T23:22:15.097Z,17.07
2023-05-24T23:24:41.993Z,16.84
2023-05-24T23:27:09.186Z,16.93
2023-05-24T23:29:35.818Z,17.00
2023-05-24T23:32:02.441Z,16.87
2023-05-24T23:34:29.174Z,16.78
2023-05-24T23:36:55.924Z,16.79
2023-05-24T23:39:24.880Z,16.62
2023-05-24T23:41:51.590Z,16.82
2023-05-24T23:44:18.245Z,16.70
2023-05-24T23:46:45.064Z,16.74
2023-05-24T23:49:11.734Z,16.75
2023-05-24T23:51:38.413Z,16.89
2023-05-24T23:54:05.209Z,16.84
2023-05-24T23:56:31.840Z,16.92
2023-05-24T23:58:59.337Z,16.95
